sensor_id;sensor_type;location;lat;lon;timestamp;P1;durP1;ratioP1;P2;durP2;ratioP2
21639;SDS011;10981;45.462;10.974;2022-07-17T00:01:08;9.43;;;5.25;;
21639;SDS011;10981;45.462;10.974;2022-07-17T00:03:36;6.10;;;5.10;;
21639;SDS011;10981;45.462;10.974;2022-07-17T00:06:06;6.25;;;5.43;;
21639;SDS011;10981;45.462;10.974;2022-07-17T00:08:34;5.38;;;4.47;;
21639;SDS011;10981;45.462;10.974;2022-07-17T00:11:03;6.50;;;4.88;;
21639;SDS011;10981;45.462;10.974;2022-07-17T00:13:31;8.45;;;5.50;;
21639;SDS011;10981;45.462;10.974;2022-07-17T00:15:59;6.03;;;5.38;;
21639;SDS011;10981;45.462;10.974;2022-07-17T00:18:28;8.73;;;5.30;;
21639;SDS011;10981;45.462;10.974;2022-07-17T00:20:56;7.85;;;5.15;;
21639;SDS011;10981;45.462;10.974;2022-07-17T00:23:24;8.02;;;4.78;;
21639;SDS011;10981;45.462;10.974;2022-07-17T00:25:52;6.88;;;5.53;;
21639;SDS011;10981;45.462;10.974;2022-07-17T00:28:20;5.65;;;5.15;;
21639;SDS011;10981;45.462;10.974;2022-07-17T00:30:49;5.65;;;5.15;;
21639;SDS011;10981;45.462;10.974;2022-07-17T00:33:17;5.68;;;4.90;;
21639;SDS011;10981;45.462;10.974;2022-07-17T00:35:48;6.10;;;5.50;;
21639;SDS011;10981;45.462;10.974;2022-07-17T00:38:16;9.70;;;5.90;;
21639;SDS011;10981;45.462;10.974;2022-07-17T00:40:45;7.65;;;4.97;;
21639;SDS011;10981;45.462;10.974;2022-07-17T00:43:13;8.80;;;5.97;;
21639;SDS011;10981;45.462;10.974;2022-07-17T00:45:42;9.02;;;5.70;;
21639;SDS011;10981;45.462;10.974;2022-07-17T00:48:10;12.20;;;5.60;;
21639;SDS011;10981;45.462;10.974;2022-07-17T00:50:40;12.73;;;6.00;;
21639;SDS011;10981;45.462;10.974;2022-07-17T00:53:09;6.13;;;5.10;;
21639;SDS011;10981;45.462;10.974;2022-07-17T00:55:39;9.32;;;5.68;;
21639;SDS011;10981;45.462;10.974;2022-07-17T00:58:10;9.68;;;6.15;;
21639;SDS011;10981;45.462;10.974;2022-07-17T01:00:49;10.88;;;6.22;;
21639;SDS011;10981;45.462;10.974;2022-07-17T01:03:20;7.65;;;4.85;;
21639;SDS011;10981;45.462;10.974;2022-07-17T01:05:50;8.15;;;6.20;;
21639;SDS011;10981;45.462;10.974;2022-07-17T01:08:19;7.43;;;5.45;;
21639;SDS011;10981;45.462;10.974;2022-07-17T01:10:47;9.65;;;5.40;;
21639;SDS011;10981;45.462;10.974;2022-07-17T01:13:16;8.15;;;5.65;;
21639;SDS011;10981;45.462;10.974;2022-07-17T01:15:45;6.75;;;5.75;;
21639;SDS011;10981;45.462;10.974;2022-07-17T01:18:14;8.25;;;5.10;;
21639;SDS011;10981;45.462;10.974;2022-07-17T01:20:44;8.70;;;6.07;;
21639;SDS011;10981;45.462;10.974;2022-07-17T01:23:15;5.70;;;5.13;;
21639;SDS011;10981;45.462;10.974;2022-07-17T01:25:48;6.82;;;5.85;;
21639;SDS011;10981;45.462;10.974;2022-07-17T01:28:16;10.60;;;5.40;;
21639;SDS011;10981;45.462;10.974;2022-07-17T01:30:48;9.63;;;6.00;;
21639;SDS011;10981;45.462;10.974;2022-07-17T01:33:20;7.88;;;5.47;;
21639;SDS011;10981;45.462;10.974;2022-07-17T01:35:50;10.43;;;5.75;;
21639;SDS011;10981;45.462;10.974;2022-07-17T01:38:19;8.57;;;5.70;;
21639;SDS011;10981;45.462;10.974;2022-07-17T01:40:47;7.93;;;5.53;;
21639;SDS011;10981;45.462;10.974;2022-07-17T01:43:15;7.22;;;5.85;;
21639;SDS011;10981;45.462;10.974;2022-07-17T01:45:44;6.07;;;5.32;;
21639;SDS011;10981;45.462;10.974;2022-07-17T01:48:21;7.03;;;6.32;;
21639;SDS011;10981;45.462;10.974;2022-07-17T01:50:51;6.13;;;5.53;;
21639;SDS011;10981;45.462;10.974;2022-07-17T01:53:19;5.68;;;5.03;;
21639;SDS011;10981;45.462;10.974;2022-07-17T01:55:48;6.65;;;5.40;;
21639;SDS011;10981;45.462;10.974;2022-07-17T01:58:16;6.05;;;5.10;;
21639;SDS011;10981;45.462;10.974;2022-07-17T02:00:44;5.47;;;4.90;;
21639;SDS011;10981;45.462;10.974;2022-07-17T02:03:13;5.55;;;5.05;;
21639;SDS011;10981;45.462;10.974;2022-07-17T02:05:41;8.70;;;5.30;;
21639;SDS011;10981;45.462;10.974;2022-07-17T02:08:09;6.32;;;4.93;;
21639;SDS011;10981;45.462;10.974;2022-07-17T02:10:40;8.13;;;5.90;;
21639;SDS011;10981;45.462;10.974;2022-07-17T02:13:09;7.03;;;5.10;;
21639;SDS011;10981;45.462;10.974;2022-07-17T02:15:37;8.68;;;5.15;;
21639;SDS011;10981;45.462;10.974;2022-07-17T02:18:07;7.03;;;5.47;;
21639;SDS011;10981;45.462;10.974;2022-07-17T02:20:35;5.70;;;5.25;;
21639;SDS011;10981;45.462;10.974;2022-07-17T02:23:03;7.10;;;5.53;;
21639;SDS011;10981;45.462;10.974;2022-07-17T02:25:32;6.97;;;5.55;;
21639;SDS011;10981;45.462;10.974;2022-07-17T02:28:01;8.65;;;6.10;;
21639;SDS011;10981;45.462;10.974;2022-07-17T02:30:29;6.75;;;4.93;;
21639;SDS011;10981;45.462;10.974;2022-07-17T02:32:57;8.90;;;5.57;;
21639;SDS011;10981;45.462;10.974;2022-07-17T02:35:25;6.43;;;5.45;;
21639;SDS011;10981;45.462;10.974;2022-07-17T02:37:54;6.40;;;5.80;;
21639;SDS011;10981;45.462;10.974;2022-07-17T02:40:22;8.10;;;5.43;;
21639;SDS011;10981;45.462;10.974;2022-07-17T02:42:50;8.85;;;6.45;;
21639;SDS011;10981;45.462;10.974;2022-07-17T02:45:18;7.45;;;5.50;;
21639;SDS011;10981;45.462;10.974;2022-07-17T02:47:51;5.72;;;5.22;;
21639;SDS011;10981;45.462;10.974;2022-07-17T02:50:21;6.88;;;5.32;;
21639;SDS011;10981;45.462;10.974;2022-07-17T02:52:50;10.25;;;5.75;;
21639;SDS011;10981;45.462;10.974;2022-07-17T02:55:18;7.70;;;5.45;;
21639;SDS011;10981;45.462;10.974;2022-07-17T02:57:46;6.00;;;5.45;;
21639;SDS011;10981;45.462;10.974;2022-07-17T03:00:15;7.25;;;5.15;;
21639;SDS011;10981;45.462;10.974;2022-07-17T03:02:45;7.97;;;5.55;;
21639;SDS011;10981;45.462;10.974;2022-07-17T03:05:15;7.65;;;4.82;;
21639;SDS011;10981;45.462;10.974;2022-07-17T03:07:44;8.02;;;5.78;;
21639;SDS011;10981;45.462;10.974;2022-07-17T03:10:13;6.53;;;4.72;;
21639;SDS011;10981;45.462;10.974;2022-07-17T03:12:42;5.47;;;4.97;;
21639;SDS011;10981;45.462;10.974;2022-07-17T03:15:11;5.68;;;5.18;;
21639;SDS011;10981;45.462;10.974;2022-07-17T03:17:39;6.30;;;5.70;;
21639;SDS011;10981;45.462;10.974;2022-07-17T03:20:08;5.93;;;5.32;;
21639;SDS011;10981;45.462;10.974;2022-07-17T03:22:37;5.95;;;5.22;;
21639;SDS011;10981;45.462;10.974;2022-07-17T03:25:06;5.65;;;5.15;;
21639;SDS011;10981;45.462;10.974;2022-07-17T03:27:35;5.32;;;4.82;;
21639;SDS011;10981;45.462;10.974;2022-07-17T03:30:03;6.45;;;5.15;;
21639;SDS011;10981;45.462;10.974;2022-07-17T03:32:32;4.93;;;4.50;;
21639;SDS011;10981;45.462;10.974;2022-07-17T03:35:00;5.88;;;5.28;;
21639;SDS011;10981;45.462;10.974;2022-07-17T03:37:30;5.38;;;4.88;;
21639;SDS011;10981;45.462;10.974;2022-07-17T03:39:58;5.65;;;5.03;;
21639;SDS011;10981;45.462;10.974;2022-07-17T03:42:26;5.15;;;4.60;;
21639;SDS011;10981;45.462;10.974;2022-07-17T03:44:55;5.60;;;4.90;;
21639;SDS011;10981;45.462;10.974;2022-07-17T03:47:23;7.45;;;4.63;;
21639;SDS011;10981;45.462;10.974;2022-07-17T03:49:51;4.97;;;4.43;;
21639;SDS011;10981;45.462;10.974;2022-07-17T03:52:19;7.72;;;5.22;;
21639;SDS011;10981;45.462;10.974;2022-07-17T03:54:47;7.07;;;4.78;;
21639;SDS011;10981;45.462;10.974;2022-07-17T03:57:16;6.28;;;5.20;;
21639;SDS011;10981;45.462;10.974;2022-07-17T03:59:44;6.45;;;5.30;;
21639;SDS011;10981;45.462;10.974;2022-07-17T04:02:12;7.53;;;4.55;;
21639;SDS011;10981;45.462;10.974;2022-07-17T04:04:43;6.28;;;4.90;;
21639;SDS011;10981;45.462;10.974;2022-07-17T04:07:11;5.22;;;4.70;;
21639;SDS011;10981;45.462;10.974;2022-07-17T04:09:55;5.57;;;4.80;;
21639;SDS011;10981;45.462;10.974;2022-07-17T04:12:24;6.65;;;4.43;;
21639;SDS011;10981;45.462;10.974;2022-07-17T04:14:53;6.63;;;5.20;;
21639;SDS011;10981;45.462;10.974;2022-07-17T04:17:22;6.78;;;5.20;;
21639;SDS011;10981;45.462;10.974;2022-07-17T04:19:51;5.13;;;4.72;;
21639;SDS011;10981;45.462;10.974;2022-07-17T04:22:19;5.85;;;3.97;;
21639;SDS011;10981;45.462;10.974;2022-07-17T04:24:47;6.50;;;4.10;;
21639;SDS011;10981;45.462;10.974;2022-07-17T04:27:16;6.47;;;4.70;;
21639;SDS011;10981;45.462;10.974;2022-07-17T04:29:45;4.43;;;4.03;;
21639;SDS011;10981;45.462;10.974;2022-07-17T04:32:16;4.40;;;4.00;;
21639;SDS011;10981;45.462;10.974;2022-07-17T04:34:44;9.13;;;4.30;;
21639;SDS011;10981;45.462;10.974;2022-07-17T04:37:12;5.07;;;4.55;;
21639;SDS011;10981;45.462;10.974;2022-07-17T04:39:41;6.55;;;4.43;;
21639;SDS011;10981;45.462;10.974;2022-07-17T04:42:10;8.70;;;4.05;;
21639;SDS011;10981;45.462;10.974;2022-07-17T04:44:38;4.68;;;4.28;;
21639;SDS011;10981;45.462;10.974;2022-07-17T04:47:06;4.53;;;4.13;;
21639;SDS011;10981;45.462;10.974;2022-07-17T04:49:37;7.00;;;4.32;;
21639;SDS011;10981;45.462;10.974;2022-07-17T04:52:05;5.28;;;4.00;;
21639;SDS011;10981;45.462;10.974;2022-07-17T04:54:33;6.13;;;4.22;;
21639;SDS011;10981;45.462;10.974;2022-07-17T04:57:02;5.30;;;3.95;;
21639;SDS011;10981;45.462;10.974;2022-07-17T04:59:30;4.43;;;4.03;;
21639;SDS011;10981;45.462;10.974;2022-07-17T05:01:59;8.88;;;3.92;;
21639;SDS011;10981;45.462;10.974;2022-07-17T05:04:27;4.03;;;3.60;;
21639;SDS011;10981;45.462;10.974;2022-07-17T05:06:55;4.70;;;4.00;;
21639;SDS011;10981;45.462;10.974;2022-07-17T05:09:24;3.97;;;3.67;;
21639;SDS011;10981;45.462;10.974;2022-07-17T05:11:52;7.28;;;3.90;;
21639;SDS011;10981;45.462;10.974;2022-07-17T05:14:20;6.40;;;3.67;;
21639;SDS011;10981;45.462;10.974;2022-07-17T05:16:49;7.10;;;3.30;;
21639;SDS011;10981;45.462;10.974;2022-07-17T05:19:17;4.60;;;3.47;;
21639;SDS011;10981;45.462;10.974;2022-07-17T05:21:45;5.18;;;3.40;;
21639;SDS011;10981;45.462;10.974;2022-07-17T05:24:13;4.32;;;3.13;;
21639;SDS011;10981;45.462;10.974;2022-07-17T05:26:42;5.38;;;4.00;;
21639;SDS011;10981;45.462;10.974;2022-07-17T05:29:10;5.20;;;3.47;;
21639;SDS011;10981;45.462;10.974;2022-07-17T05:31:38;4.15;;;3.63;;
21639;SDS011;10981;45.462;10.974;2022-07-17T05:34:07;4.00;;;3.40;;
21639;SDS011;10981;45.462;10.974;2022-07-17T05:36:35;3.65;;;3.35;;
21639;SDS011;10981;45.462;10.974;2022-07-17T05:39:03;3.90;;;3.50;;
21639;SDS011;10981;45.462;10.974;2022-07-17T05:41:31;9.60;;;4.22;;
21639;SDS011;10981;45.462;10.974;2022-07-17T05:44:00;5.53;;;3.30;;
21639;SDS011;10981;45.462;10.974;2022-07-17T05:46:29;3.28;;;2.97;;
21639;SDS011;10981;45.462;10.974;2022-07-17T05:48:57;4.55;;;3.10;;
21639;SDS011;10981;45.462;10.974;2022-07-17T05:51:26;3.70;;;3.38;;
21639;SDS011;10981;45.462;10.974;2022-07-17T05:53:54;3.20;;;3.00;;
21639;SDS011;10981;45.462;10.974;2022-07-17T05:56:22;6.40;;;3.50;;
21639;SDS011;10981;45.462;10.974;2022-07-17T05:58:50;4.25;;;3.42;;
21639;SDS011;10981;45.462;10.974;2022-07-17T06:01:19;7.10;;;3.83;;
21639;SDS011;10981;45.462;10.974;2022-07-17T06:03:47;5.35;;;3.85;;
21639;SDS011;10981;45.462;10.974;2022-07-17T06:06:15;4.75;;;3.95;;
21639;SDS011;10981;45.462;10.974;2022-07-17T06:08:44;6.75;;;3.75;;
21639;SDS011;10981;45.462;10.974;2022-07-17T06:11:12;8.43;;;4.28;;
21639;SDS011;10981;45.462;10.974;2022-07-17T06:13:40;5.25;;;4.53;;
21639;SDS011;10981;45.462;10.974;2022-07-17T06:16:09;5.53;;;4.25;;
21639;SDS011;10981;45.462;10.974;2022-07-17T06:18:37;5.28;;;4.32;;
21639;SDS011;10981;45.462;10.974;2022-07-17T06:21:06;5.85;;;4.10;;
21639;SDS011;10981;45.462;10.974;2022-07-17T06:23:34;4.63;;;4.15;;
21639;SDS011;10981;45.462;10.974;2022-07-17T06:26:03;5.82;;;3.63;;
21639;SDS011;10981;45.462;10.974;2022-07-17T06:28:31;4.18;;;3.80;;
21639;SDS011;10981;45.462;10.974;2022-07-17T06:30:59;4.45;;;4.05;;
21639;SDS011;10981;45.462;10.974;2022-07-17T06:33:28;4.40;;;3.65;;
21639;SDS011;10981;45.462;10.974;2022-07-17T06:35:59;5.82;;;5.28;;
21639;SDS011;10981;45.462;10.974;2022-07-17T06:38:27;6.63;;;3.83;;
21639;SDS011;10981;45.462;10.974;2022-07-17T06:40:55;3.72;;;3.30;;
21639;SDS011;10981;45.462;10.974;2022-07-17T06:43:24;3.80;;;3.50;;
21639;SDS011;10981;45.462;10.974;2022-07-17T06:45:52;3.60;;;3.30;;
21639;SDS011;10981;45.462;10.974;2022-07-17T06:48:21;6.22;;;3.65;;
21639;SDS011;10981;45.462;10.974;2022-07-17T06:50:50;5.50;;;4.15;;
21639;SDS011;10981;45.462;10.974;2022-07-17T06:53:18;5.70;;;3.80;;
21639;SDS011;10981;45.462;10.974;2022-07-17T06:55:46;4.05;;;3.70;;
21639;SDS011;10981;45.462;10.974;2022-07-17T06:58:14;4.43;;;3.47;;
21639;SDS011;10981;45.462;10.974;2022-07-17T07:00:43;4.00;;;3.70;;
21639;SDS011;10981;45.462;10.974;2022-07-17T07:03:11;5.30;;;3.58;;
21639;SDS011;10981;45.462;10.974;2022-07-17T07:05:40;4.65;;;3.70;;
21639;SDS011;10981;45.462;10.974;2022-07-17T07:08:08;4.57;;;3.65;;
21639;SDS011;10981;45.462;10.974;2022-07-17T07:10:36;8.18;;;3.63;;
21639;SDS011;10981;45.462;10.974;2022-07-17T07:13:05;4.32;;;3.92;;
21639;SDS011;10981;45.462;10.974;2022-07-17T07:15:34;4.35;;;3.95;;
21639;SDS011;10981;45.462;10.974;2022-07-17T07:18:03;6.47;;;3.90;;
21639;SDS011;10981;45.462;10.974;2022-07-17T07:20:31;4.00;;;3.65;;
21639;SDS011;10981;45.462;10.974;2022-07-17T07:23:00;6.05;;;3.65;;
21639;SDS011;10981;45.462;10.974;2022-07-17T07:25:33;5.03;;;3.58;;
21639;SDS011;10981;45.462;10.974;2022-07-17T07:28:04;4.93;;;3.83;;
21639;SDS011;10981;45.462;10.974;2022-07-17T07:30:33;3.70;;;3.30;;
21639;SDS011;10981;45.462;10.974;2022-07-17T07:33:01;6.78;;;3.60;;
21639;SDS011;10981;45.462;10.974;2022-07-17T07:35:29;4.03;;;3.55;;
21639;SDS011;10981;45.462;10.974;2022-07-17T07:37:58;5.25;;;4.05;;
21639;SDS011;10981;45.462;10.974;2022-07-17T07:40:26;5.22;;;3.40;;
21639;SDS011;10981;45.462;10.974;2022-07-17T07:42:54;4.63;;;3.60;;
21639;SDS011;10981;45.462;10.974;2022-07-17T07:45:23;4.30;;;3.42;;
21639;SDS011;10981;45.462;10.974;2022-07-17T07:47:55;4.68;;;4.00;;
21639;SDS011;10981;45.462;10.974;2022-07-17T07:50:26;5.63;;;4.07;;
21639;SDS011;10981;45.462;10.974;2022-07-17T07:52:55;6.03;;;3.50;;
21639;SDS011;10981;45.462;10.974;2022-07-17T07:55:26;4.32;;;3.55;;
21639;SDS011;10981;45.462;10.974;2022-07-17T07:58:01;4.53;;;4.00;;
21639;SDS011;10981;45.462;10.974;2022-07-17T08:00:30;3.58;;;3.28;;
21639;SDS011;10981;45.462;10.974;2022-07-17T08:02:59;5.20;;;3.50;;
21639;SDS011;10981;45.462;10.974;2022-07-17T08:05:27;5.80;;;3.67;;
21639;SDS011;10981;45.462;10.974;2022-07-17T08:07:56;4.72;;;3.47;;
21639;SDS011;10981;45.462;10.974;2022-07-17T08:10:25;3.83;;;3.30;;
21639;SDS011;10981;45.462;10.974;2022-07-17T08:12:53;7.00;;;3.60;;
21639;SDS011;10981;45.462;10.974;2022-07-17T08:15:21;4.65;;;3.67;;
21639;SDS011;10981;45.462;10.974;2022-07-17T08:17:50;5.90;;;3.63;;
21639;SDS011;10981;45.462;10.974;2022-07-17T08:20:19;4.22;;;3.65;;
21639;SDS011;10981;45.462;10.974;2022-07-17T08:22:48;7.95;;;3.90;;
21639;SDS011;10981;45.462;10.974;2022-07-17T08:25:31;5.72;;;4.20;;
21639;SDS011;10981;45.462;10.974;2022-07-17T08:28:02;3.65;;;3.35;;
21639;SDS011;10981;45.462;10.974;2022-07-17T08:30:31;4.47;;;3.72;;
21639;SDS011;10981;45.462;10.974;2022-07-17T08:33:02;3.80;;;3.42;;
21639;SDS011;10981;45.462;10.974;2022-07-17T08:35:32;5.05;;;3.80;;
21639;SDS011;10981;45.462;10.974;2022-07-17T08:38:01;5.10;;;3.75;;
21639;SDS011;10981;45.462;10.974;2022-07-17T08:40:31;4.13;;;3.53;;
21639;SDS011;10981;45.462;10.974;2022-07-17T08:43:02;8.25;;;4.20;;
21639;SDS011;10981;45.462;10.974;2022-07-17T08:45:32;5.68;;;4.18;;
21639;SDS011;10981;45.462;10.974;2022-07-17T08:48:01;4.78;;;3.75;;
21639;SDS011;10981;45.462;10.974;2022-07-17T08:50:31;3.78;;;3.47;;
21639;SDS011;10981;45.462;10.974;2022-07-17T08:53:02;4.18;;;3.70;;
21639;SDS011;10981;45.462;10.974;2022-07-17T08:55:31;6.10;;;3.70;;
21639;SDS011;10981;45.462;10.974;2022-07-17T08:58:00;4.40;;;4.00;;
21639;SDS011;10981;45.462;10.974;2022-07-17T09:00:28;3.78;;;3.40;;
21639;SDS011;10981;45.462;10.974;2022-07-17T09:03:04;5.68;;;3.97;;
21639;SDS011;10981;45.462;10.974;2022-07-17T09:05:38;4.03;;;3.63;;
21639;SDS011;10981;45.462;10.974;2022-07-17T09:08:15;6.95;;;4.75;;
21639;SDS011;10981;45.462;10.974;2022-07-17T09:10:47;3.85;;;3.45;;
21639;SDS011;10981;45.462;10.974;2022-07-17T09:13:25;4.15;;;3.53;;
21639;SDS011;10981;45.462;10.974;2022-07-17T09:15:58;4.18;;;3.88;;
21639;SDS011;10981;45.462;10.974;2022-07-17T09:18:43;4.00;;;3.67;;
21639;SDS011;10981;45.462;10.974;2022-07-17T09:21:17;6.95;;;4.10;;
21639;SDS011;10981;45.462;10.974;2022-07-17T09:24:08;6.68;;;4.05;;
21639;SDS011;10981;45.462;10.974;2022-07-17T09:26:35;4.32;;;3.53;;
21639;SDS011;10981;45.462;10.974;2022-07-17T09:29:11;5.15;;;4.22;;
21639;SDS011;10981;45.462;10.974;2022-07-17T09:31:39;4.05;;;3.65;;
21639;SDS011;10981;45.462;10.974;2022-07-17T09:34:16;5.15;;;3.78;;
21639;SDS011;10981;45.462;10.974;2022-07-17T09:36:45;4.10;;;3.70;;
21639;SDS011;10981;45.462;10.974;2022-07-17T09:39:36;4.75;;;3.95;;
21639;SDS011;10981;45.462;10.974;2022-07-17T09:42:05;4.55;;;4.00;;
21639;SDS011;10981;45.462;10.974;2022-07-17T09:44:34;4.22;;;3.70;;
21639;SDS011;10981;45.462;10.974;2022-07-17T09:47:02;5.68;;;4.50;;
21639;SDS011;10981;45.462;10.974;2022-07-17T09:49:31;5.28;;;3.72;;
21639;SDS011;10981;45.462;10.974;2022-07-17T09:52:00;5.72;;;3.83;;
21639;SDS011;10981;45.462;10.974;2022-07-17T09:54:29;4.68;;;4.00;;
21639;SDS011;10981;45.462;10.974;2022-07-17T09:57:00;6.38;;;3.80;;
21639;SDS011;10981;45.462;10.974;2022-07-17T09:59:29;4.03;;;3.72;;
21639;SDS011;10981;45.462;10.974;2022-07-17T10:02:04;3.83;;;3.40;;
21639;SDS011;10981;45.462;10.974;2022-07-17T10:04:34;3.83;;;3.45;;
21639;SDS011;10981;45.462;10.974;2022-07-17T10:07:03;4.63;;;3.92;;
21639;SDS011;10981;45.462;10.974;2022-07-17T10:09:32;4.75;;;3.83;;
21639;SDS011;10981;45.462;10.974;2022-07-17T10:12:01;3.53;;;3.22;;
21639;SDS011;10981;45.462;10.974;2022-07-17T10:14:30;6.45;;;4.00;;
21639;SDS011;10981;45.462;10.974;2022-07-17T10:17:09;7.05;;;4.07;;
21639;SDS011;10981;45.462;10.974;2022-07-17T10:20:00;5.63;;;3.88;;
21639;SDS011;10981;45.462;10.974;2022-07-17T10:22:41;4.00;;;3.70;;
21639;SDS011;10981;45.462;10.974;2022-07-17T10:25:15;4.00;;;3.65;;
21639;SDS011;10981;45.462;10.974;2022-07-17T10:27:54;4.68;;;3.72;;
21639;SDS011;10981;45.462;10.974;2022-07-17T10:30:23;3.67;;;3.47;;
21639;SDS011;10981;45.462;10.974;2022-07-17T10:32:55;4.00;;;3.70;;
21639;SDS011;10981;45.462;10.974;2022-07-17T10:35:28;3.97;;;3.63;;
21639;SDS011;10981;45.462;10.974;2022-07-17T10:38:10;6.15;;;3.75;;
21639;SDS011;10981;45.462;10.974;2022-07-17T10:40:40;3.53;;;3.20;;
21639;SDS011;10981;45.462;10.974;2022-07-17T10:43:09;4.85;;;3.72;;
21639;SDS011;10981;45.462;10.974;2022-07-17T10:45:39;3.95;;;3.63;;
21639;SDS011;10981;45.462;10.974;2022-07-17T10:48:12;3.92;;;3.50;;
21639;SDS011;10981;45.462;10.974;2022-07-17T10:50:43;4.20;;;3.80;;
21639;SDS011;10981;45.462;10.974;2022-07-17T10:53:17;4.47;;;3.70;;
21639;SDS011;10981;45.462;10.974;2022-07-17T10:56:01;4.10;;;3.78;;
21639;SDS011;10981;45.462;10.974;2022-07-17T11:01:27;4.82;;;4.35;;
21639;SDS011;10981;45.462;10.974;2022-07-17T11:03:57;4.35;;;3.50;;
21639;SDS011;10981;45.462;10.974;2022-07-17T11:06:34;6.25;;;3.90;;
21639;SDS011;10981;45.462;10.974;2022-07-17T11:09:05;4.30;;;3.90;;
21639;SDS011;10981;45.462;10.974;2022-07-17T11:11:39;4.90;;;4.03;;
21639;SDS011;10981;45.462;10.974;2022-07-17T11:21:56;3.65;;;3.40;;
21639;SDS011;10981;45.462;10.974;2022-07-17T11:24:43;3.70;;;3.40;;
21639;SDS011;10981;45.462;10.974;2022-07-17T11:27:23;4.05;;;3.65;;
21639;SDS011;10981;45.462;10.974;2022-07-17T11:29:56;4.95;;;3.13;;
21639;SDS011;10981;45.462;10.974;2022-07-17T11:32:36;4.30;;;3.40;;
21639;SDS011;10981;45.462;10.974;2022-07-17T11:35:17;4.03;;;3.67;;
21639;SDS011;10981;45.462;10.974;2022-07-17T11:38:07;4.10;;;3.80;;
21639;SDS011;10981;45.462;10.974;2022-07-17T11:40:44;4.63;;;3.88;;
21639;SDS011;10981;45.462;10.974;2022-07-17T11:43:18;8.18;;;4.22;;
21639;SDS011;10981;45.462;10.974;2022-07-17T11:45:47;5.38;;;3.45;;
21639;SDS011;10981;45.462;10.974;2022-07-17T11:48:16;4.60;;;3.83;;
21639;SDS011;10981;45.462;10.974;2022-07-17T11:50:54;8.32;;;3.85;;
21639;SDS011;10981;45.462;10.974;2022-07-17T11:53:32;6.50;;;3.50;;
21639;SDS011;10981;45.462;10.974;2022-07-17T11:56:02;7.38;;;4.10;;
21639;SDS011;10981;45.462;10.974;2022-07-17T11:58:42;4.72;;;3.50;;
21639;SDS011;10981;45.462;10.974;2022-07-17T12:01:12;4.25;;;3.85;;
21639;SDS011;10981;45.462;10.974;2022-07-17T12:03:44;5.53;;;4.20;;
21639;SDS011;10981;45.462;10.974;2022-07-17T12:06:12;7.38;;;3.42;;
21639;SDS011;10981;45.462;10.974;2022-07-17T12:08:54;3.58;;;3.28;;
21639;SDS011;10981;45.462;10.974;2022-07-17T12:11:22;5.55;;;3.92;;
21639;SDS011;10981;45.462;10.974;2022-07-17T12:13:50;5.10;;;3.85;;
21639;SDS011;10981;45.462;10.974;2022-07-17T12:18:56;5.63;;;3.65;;
21639;SDS011;10981;45.462;10.974;2022-07-17T12:21:28;5.38;;;4.03;;
21639;SDS011;10981;45.462;10.974;2022-07-17T12:23:58;3.65;;;3.35;;
21639;SDS011;10981;45.462;10.974;2022-07-17T12:26:39;6.07;;;3.63;;
21639;SDS011;10981;45.462;10.974;2022-07-17T12:29:08;5.20;;;3.58;;
21639;SDS011;10981;45.462;10.974;2022-07-17T12:31:36;6.97;;;3.95;;
21639;SDS011;10981;45.462;10.974;2022-07-17T12:34:04;4.95;;;3.58;;
21639;SDS011;10981;45.462;10.974;2022-07-17T12:36:33;6.43;;;4.53;;
21639;SDS011;10981;45.462;10.974;2022-07-17T12:39:04;5.53;;;4.07;;
21639;SDS011;10981;45.462;10.974;2022-07-17T12:41:33;3.30;;;3.00;;
21639;SDS011;10981;45.462;10.974;2022-07-17T12:44:01;4.43;;;3.40;;
21639;SDS011;10981;45.462;10.974;2022-07-17T12:46:30;4.63;;;3.80;;
21639;SDS011;10981;45.462;10.974;2022-07-17T12:48:59;5.22;;;3.83;;
21639;SDS011;10981;45.462;10.974;2022-07-17T12:51:28;5.63;;;3.78;;
21639;SDS011;10981;45.462;10.974;2022-07-17T12:53:57;4.80;;;3.83;;
21639;SDS011;10981;45.462;10.974;2022-07-17T12:56:25;5.28;;;3.60;;
21639;SDS011;10981;45.462;10.974;2022-07-17T12:58:54;3.97;;;3.20;;
21639;SDS011;10981;45.462;10.974;2022-07-17T13:01:28;5.47;;;3.60;;
21639;SDS011;10981;45.462;10.974;2022-07-17T13:03:56;4.50;;;3.72;;
21639;SDS011;10981;45.462;10.974;2022-07-17T13:06:25;3.83;;;3.50;;
21639;SDS011;10981;45.462;10.974;2022-07-17T13:08:54;6.32;;;3.92;;
21639;SDS011;10981;45.462;10.974;2022-07-17T13:11:22;5.63;;;3.40;;
21639;SDS011;10981;45.462;10.974;2022-07-17T13:13:50;5.68;;;3.67;;
21639;SDS011;10981;45.462;10.974;2022-07-17T13:16:19;4.70;;;3.60;;
21639;SDS011;10981;45.462;10.974;2022-07-17T13:18:47;5.65;;;3.75;;
21639;SDS011;10981;45.462;10.974;2022-07-17T13:21:16;3.92;;;3.53;;
21639;SDS011;10981;45.462;10.974;2022-07-17T13:23:44;3.88;;;3.53;;
21639;SDS011;10981;45.462;10.974;2022-07-17T13:26:12;7.20;;;3.90;;
21639;SDS011;10981;45.462;10.974;2022-07-17T13:28:46;5.15;;;3.35;;
21639;SDS011;10981;45.462;10.974;2022-07-17T13:31:14;5.80;;;3.42;;
21639;SDS011;10981;45.462;10.974;2022-07-17T13:33:44;4.13;;;3.42;;
21639;SDS011;10981;45.462;10.974;2022-07-17T13:36:15;5.85;;;3.60;;
21639;SDS011;10981;45.462;10.974;2022-07-17T13:38:44;3.90;;;3.47;;
21639;SDS011;10981;45.462;10.974;2022-07-17T13:41:12;5.38;;;3.70;;
21639;SDS011;10981;45.462;10.974;2022-07-17T13:43:43;6.78;;;3.75;;
21639;SDS011;10981;45.462;10.974;2022-07-17T13:46:11;4.18;;;3.80;;
21639;SDS011;10981;45.462;10.974;2022-07-17T13:48:40;4.30;;;3.50;;
21639;SDS011;10981;45.462;10.974;2022-07-17T13:51:08;3.70;;;3.40;;
21639;SDS011;10981;45.462;10.974;2022-07-17T13:53:36;3.45;;;3.22;;
21639;SDS011;10981;45.462;10.974;2022-07-17T13:56:05;4.30;;;3.90;;
21639;SDS011;10981;45.462;10.974;2022-07-17T13:58:33;7.85;;;3.97;;
21639;SDS011;10981;45.462;10.974;2022-07-17T14:01:01;5.43;;;3.40;;
21639;SDS011;10981;45.462;10.974;2022-07-17T14:03:30;4.60;;;3.90;;
21639;SDS011;10981;45.462;10.974;2022-07-17T14:05:59;7.07;;;3.78;;
21639;SDS011;10981;45.462;10.974;2022-07-17T14:08:27;4.13;;;3.72;;
21639;SDS011;10981;45.462;10.974;2022-07-17T14:10:56;4.50;;;4.10;;
21639;SDS011;10981;45.462;10.974;2022-07-17T14:13:25;4.47;;;3.40;;
21639;SDS011;10981;45.462;10.974;2022-07-17T14:15:56;4.90;;;4.00;;
21639;SDS011;10981;45.462;10.974;2022-07-17T14:18:25;4.55;;;4.15;;
21639;SDS011;10981;45.462;10.974;2022-07-17T14:20:53;4.85;;;4.00;;
21639;SDS011;10981;45.462;10.974;2022-07-17T14:23:22;5.18;;;3.80;;
21639;SDS011;10981;45.462;10.974;2022-07-17T14:25:50;4.07;;;3.78;;
21639;SDS011;10981;45.462;10.974;2022-07-17T14:28:18;4.18;;;3.85;;
21639;SDS011;10981;45.462;10.974;2022-07-17T14:30:46;6.97;;;3.97;;
21639;SDS011;10981;45.462;10.974;2022-07-17T14:33:14;4.20;;;3.80;;
21639;SDS011;10981;45.462;10.974;2022-07-17T14:35:43;4.43;;;3.70;;
21639;SDS011;10981;45.462;10.974;2022-07-17T14:38:11;4.65;;;4.15;;
21639;SDS011;10981;45.462;10.974;2022-07-17T14:40:39;4.95;;;4.03;;
21639;SDS011;10981;45.462;10.974;2022-07-17T14:43:07;9.38;;;4.20;;
21639;SDS011;10981;45.462;10.974;2022-07-17T14:45:36;4.45;;;4.05;;
21639;SDS011;10981;45.462;10.974;2022-07-17T14:48:04;8.57;;;4.78;;
21639;SDS011;10981;45.462;10.974;2022-07-17T14:50:32;7.85;;;4.78;;
21639;SDS011;10981;45.462;10.974;2022-07-17T14:53:01;4.50;;;3.97;;
21639;SDS011;10981;45.462;10.974;2022-07-17T14:55:29;5.57;;;4.07;;
21639;SDS011;10981;45.462;10.974;2022-07-17T14:57:58;7.78;;;4.50;;
21639;SDS011;10981;45.462;10.974;2022-07-17T15:00:26;6.75;;;4.38;;
21639;SDS011;10981;45.462;10.974;2022-07-17T15:02:54;5.55;;;4.43;;